sensor_id;sensor_type;location;lat;lon;timestamp;P1;durP1;ratioP1;P2;durP2;ratioP2
11960;SDS011;6040;49.358;11.140;2024-02-16T00:02:05;2.60;;;2.20;;
11960;SDS011;6040;49.358;11.140;2024-02-16T00:04:31;3.50;;;2.55;;
11960;SDS011;6040;49.358;11.140;2024-02-16T00:06:59;3.65;;;2.40;;
11960;SDS011;6040;49.358;11.140;2024-02-16T00:09:25;3.28;;;2.40;;
11960;SDS011;6040;49.358;11.140;2024-02-16T00:11:54;3.38;;;2.30;;
11960;SDS011;6040;49.358;11.140;2024-02-16T00:14:22;3.45;;;2.30;;
11960;SDS011;6040;49.358;11.140;2024-02-16T00:16:49;2.77;;;2.30;;
11960;SDS011;6040;49.358;11.140;2024-02-16T00:19:15;2.70;;;2.40;;
11960;SDS011;6040;49.358;11.140;2024-02-16T00:21:42;3.28;;;2.40;;
11960;SDS011;6040;49.358;11.140;2024-02-16T00:24:09;3.00;;;2.50;;
11960;SDS011;6040;49.358;11.140;2024-02-16T00:26:37;2.67;;;2.30;;
11960;SDS011;6040;49.358;11.140;2024-02-16T00:29:06;2.88;;;2.38;;
11960;SDS011;6040;49.358;11.140;2024-02-16T00:31:33;3.43;;;2.50;;
11960;SDS011;6040;49.358;11.140;2024-02-16T00:34:00;2.78;;;2.28;;
11960;SDS011;6040;49.358;11.140;2024-02-16T00:36:27;3.30;;;2.45;;
11960;SDS011;6040;49.358;11.140;2024-02-16T00:38:55;3.53;;;2.40;;
11960;SDS011;6040;49.358;11.140;2024-02-16T00:41:22;3.83;;;2.22;;
11960;SDS011;6040;49.358;11.140;2024-02-16T00:43:49;3.40;;;2.28;;
11960;SDS011;6040;49.358;11.140;2024-02-16T00:46:18;3.78;;;2.38;;
11960;SDS011;6040;49.358;11.140;2024-02-16T00:48:48;4.07;;;2.17;;
11960;SDS011;6040;49.358;11.140;2024-02-16T00:51:15;2.42;;;2.17;;
11960;SDS011;6040;49.358;11.140;2024-02-16T00:53:42;2.45;;;1.90;;
11960;SDS011;6040;49.358;11.140;2024-02-16T00:56:09;2.60;;;2.20;;
11960;SDS011;6040;49.358;11.140;2024-02-16T00:58:36;2.20;;;2.00;;
11960;SDS011;6040;49.358;11.140;2024-02-16T01:01:06;2.90;;;2.13;;
11960;SDS011;6040;49.358;11.140;2024-02-16T01:03:37;2.25;;;2.00;;
11960;SDS011;6040;49.358;11.140;2024-02-16T01:09:26;3.55;;;2.10;;
11960;SDS011;6040;49.358;11.140;2024-02-16T01:12:56;2.65;;;2.28;;
11960;SDS011;6040;49.358;11.140;2024-02-16T01:15:30;2.10;;;1.90;;
11960;SDS011;6040;49.358;11.140;2024-02-16T01:17:57;2.20;;;2.00;;
11960;SDS011;6040;49.358;11.140;2024-02-16T01:20:26;3.38;;;2.40;;
11960;SDS011;6040;49.358;11.140;2024-02-16T01:22:56;3.70;;;1.90;;
11960;SDS011;6040;49.358;11.140;2024-02-16T01:25:22;3.30;;;2.20;;
11960;SDS011;6040;49.358;11.140;2024-02-16T01:27:49;2.90;;;2.00;;
11960;SDS011;6040;49.358;11.140;2024-02-16T01:30:16;2.03;;;1.85;;
11960;SDS011;6040;49.358;11.140;2024-02-16T01:32:45;5.27;;;3.03;;
11960;SDS011;6040;49.358;11.140;2024-02-16T01:35:12;5.10;;;3.50;;
11960;SDS011;6040;49.358;11.140;2024-02-16T01:37:41;5.18;;;3.28;;
11960;SDS011;6040;49.358;11.140;2024-02-16T01:40:08;5.22;;;3.13;;
11960;SDS011;6040;49.358;11.140;2024-02-16T01:42:39;3.72;;;2.80;;
11960;SDS011;6040;49.358;11.140;2024-02-16T01:45:06;5.35;;;2.53;;
11960;SDS011;6040;49.358;11.140;2024-02-16T01:47:35;3.28;;;2.55;;
11960;SDS011;6040;49.358;11.140;2024-02-16T01:50:02;3.13;;;2.50;;
11960;SDS011;6040;49.358;11.140;2024-02-16T01:52:29;4.37;;;2.77;;
11960;SDS011;6040;49.358;11.140;2024-02-16T01:55:00;4.07;;;2.72;;
11960;SDS011;6040;49.358;11.140;2024-02-16T01:57:28;3.30;;;2.50;;
11960;SDS011;6040;49.358;11.140;2024-02-16T01:59:55;2.72;;;2.25;;
11960;SDS011;6040;49.358;11.140;2024-02-16T02:02:22;2.90;;;2.30;;
11960;SDS011;6040;49.358;11.140;2024-02-16T02:04:49;2.75;;;2.17;;
11960;SDS011;6040;49.358;11.140;2024-02-16T02:07:16;4.25;;;2.38;;
11960;SDS011;6040;49.358;11.140;2024-02-16T02:09:43;3.70;;;2.05;;
11960;SDS011;6040;49.358;11.140;2024-02-16T02:12:11;2.88;;;2.10;;
11960;SDS011;6040;49.358;11.140;2024-02-16T02:14:38;2.75;;;2.30;;
11960;SDS011;6040;49.358;11.140;2024-02-16T02:17:04;2.80;;;2.00;;
11960;SDS011;6040;49.358;11.140;2024-02-16T02:19:31;4.15;;;2.13;;
11960;SDS011;6040;49.358;11.140;2024-02-16T02:21:58;2.95;;;2.13;;
11960;SDS011;6040;49.358;11.140;2024-02-16T02:24:27;2.80;;;2.05;;
11960;SDS011;6040;49.358;11.140;2024-02-16T02:26:54;4.47;;;2.28;;
11960;SDS011;6040;49.358;11.140;2024-02-16T02:29:22;3.53;;;2.20;;
11960;SDS011;6040;49.358;11.140;2024-02-16T02:31:49;3.03;;;2.40;;
11960;SDS011;6040;49.358;11.140;2024-02-16T02:34:16;3.33;;;2.35;;
11960;SDS011;6040;49.358;11.140;2024-02-16T02:36:42;2.67;;;2.47;;
11960;SDS011;6040;49.358;11.140;2024-02-16T02:39:09;4.23;;;2.63;;
11960;SDS011;6040;49.358;11.140;2024-02-16T02:41:38;3.17;;;2.47;;
11960;SDS011;6040;49.358;11.140;2024-02-16T02:44:04;4.93;;;2.60;;
11960;SDS011;6040;49.358;11.140;2024-02-16T02:46:31;2.87;;;2.50;;
11960;SDS011;6040;49.358;11.140;2024-02-16T02:48:58;3.05;;;2.67;;
11960;SDS011;6040;49.358;11.140;2024-02-16T02:51:25;3.63;;;2.70;;
11960;SDS011;6040;49.358;11.140;2024-02-16T02:53:52;2.80;;;2.40;;
11960;SDS011;6040;49.358;11.140;2024-02-16T02:56:19;2.92;;;2.63;;
11960;SDS011;6040;49.358;11.140;2024-02-16T02:58:47;3.70;;;2.42;;
11960;SDS011;6040;49.358;11.140;2024-02-16T03:01:14;4.27;;;2.53;;
11960;SDS011;6040;49.358;11.140;2024-02-16T03:03:41;3.58;;;2.40;;
11960;SDS011;6040;49.358;11.140;2024-02-16T03:06:08;2.92;;;2.35;;
11960;SDS011;6040;49.358;11.140;2024-02-16T03:08:35;3.35;;;2.58;;
11960;SDS011;6040;49.358;11.140;2024-02-16T03:11:02;2.95;;;2.70;;
11960;SDS011;6040;49.358;11.140;2024-02-16T03:13:29;2.78;;;2.50;;
11960;SDS011;6040;49.358;11.140;2024-02-16T03:15:57;3.15;;;2.45;;
11960;SDS011;6040;49.358;11.140;2024-02-16T03:18:24;3.42;;;2.67;;
11960;SDS011;6040;49.358;11.140;2024-02-16T03:20:51;4.38;;;2.78;;
11960;SDS011;6040;49.358;11.140;2024-02-16T03:23:18;2.70;;;2.50;;
11960;SDS011;6040;49.358;11.140;2024-02-16T03:25:45;2.72;;;2.50;;
11960;SDS011;6040;49.358;11.140;2024-02-16T03:28:12;2.90;;;2.53;;
11960;SDS011;6040;49.358;11.140;2024-02-16T03:30:39;3.13;;;2.65;;
11960;SDS011;6040;49.358;11.140;2024-02-16T03:33:07;3.20;;;2.60;;
11960;SDS011;6040;49.358;11.140;2024-02-16T03:35:34;4.13;;;2.70;;
11960;SDS011;6040;49.358;11.140;2024-02-16T03:38:01;3.67;;;2.65;;
11960;SDS011;6040;49.358;11.140;2024-02-16T03:40:28;3.83;;;2.80;;
11960;SDS011;6040;49.358;11.140;2024-02-16T03:42:55;3.83;;;2.78;;
11960;SDS011;6040;49.358;11.140;2024-02-16T03:45:23;3.88;;;2.92;;
11960;SDS011;6040;49.358;11.140;2024-02-16T03:47:52;2.95;;;2.50;;
11960;SDS011;6040;49.358;11.140;2024-02-16T03:50:20;3.00;;;2.58;;
11960;SDS011;6040;49.358;11.140;2024-02-16T03:52:48;5.22;;;2.70;;
11960;SDS011;6040;49.358;11.140;2024-02-16T03:55:14;3.23;;;2.60;;
11960;SDS011;6040;49.358;11.140;2024-02-16T03:57:41;4.88;;;3.30;;
11960;SDS011;6040;49.358;11.140;2024-02-16T04:00:08;4.72;;;2.75;;
11960;SDS011;6040;49.358;11.140;2024-02-16T04:02:37;3.13;;;2.80;;
11960;SDS011;6040;49.358;11.140;2024-02-16T04:05:04;4.20;;;3.30;;
11960;SDS011;6040;49.358;11.140;2024-02-16T04:07:34;4.40;;;3.00;;
11960;SDS011;6040;49.358;11.140;2024-02-16T04:10:01;4.10;;;3.10;;
11960;SDS011;6040;49.358;11.140;2024-02-16T04:12:27;3.53;;;2.80;;
11960;SDS011;6040;49.358;11.140;2024-02-16T04:14:54;4.20;;;3.78;;
11960;SDS011;6040;49.358;11.140;2024-02-16T04:17:21;4.25;;;3.55;;
11960;SDS011;6040;49.358;11.140;2024-02-16T04:19:48;5.32;;;3.90;;
11960;SDS011;6040;49.358;11.140;2024-02-16T04:22:15;5.15;;;4.05;;
11960;SDS011;6040;49.358;11.140;2024-02-16T04:24:43;5.63;;;3.83;;
11960;SDS011;6040;49.358;11.140;2024-02-16T04:27:10;4.33;;;3.60;;
11960;SDS011;6040;49.358;11.140;2024-02-16T04:29:37;4.88;;;3.70;;
11960;SDS011;6040;49.358;11.140;2024-02-16T04:32:04;4.90;;;4.10;;
11960;SDS011;6040;49.358;11.140;2024-02-16T04:34:31;4.45;;;3.90;;
11960;SDS011;6040;49.358;11.140;2024-02-16T04:36:57;6.80;;;3.70;;
11960;SDS011;6040;49.358;11.140;2024-02-16T04:39:24;4.40;;;4.00;;
11960;SDS011;6040;49.358;11.140;2024-02-16T04:41:55;4.30;;;3.63;;
11960;SDS011;6040;49.358;11.140;2024-02-16T04:44:22;5.60;;;4.00;;
11960;SDS011;6040;49.358;11.140;2024-02-16T04:46:50;5.22;;;4.18;;
11960;SDS011;6040;49.358;11.140;2024-02-16T04:49:17;6.20;;;4.50;;
11960;SDS011;6040;49.358;11.140;2024-02-16T04:51:44;6.17;;;4.63;;
11960;SDS011;6040;49.358;11.140;2024-02-16T04:54:12;5.80;;;4.30;;
11960;SDS011;6040;49.358;11.140;2024-02-16T04:56:39;6.05;;;4.25;;
11960;SDS011;6040;49.358;11.140;2024-02-16T04:59:07;4.80;;;4.13;;
11960;SDS011;6040;49.358;11.140;2024-02-16T05:01:34;5.47;;;3.85;;
11960;SDS011;6040;49.358;11.140;2024-02-16T05:07:23;6.00;;;4.05;;
11960;SDS011;6040;49.358;11.140;2024-02-16T05:09:50;6.93;;;6.22;;
11960;SDS011;6040;49.358;11.140;2024-02-16T05:12:21;9.77;;;6.80;;
11960;SDS011;6040;49.358;11.140;2024-02-16T05:14:49;9.30;;;6.47;;
11960;SDS011;6040;49.358;11.140;2024-02-16T05:17:17;9.18;;;6.50;;
11960;SDS011;6040;49.358;11.140;2024-02-16T05:19:45;6.78;;;5.82;;
11960;SDS011;6040;49.358;11.140;2024-02-16T05:22:12;7.88;;;5.70;;
11960;SDS011;6040;49.358;11.140;2024-02-16T05:24:39;8.48;;;5.85;;
11960;SDS011;6040;49.358;11.140;2024-02-16T05:27:06;7.32;;;6.07;;
11960;SDS011;6040;49.358;11.140;2024-02-16T05:29:33;7.37;;;6.07;;
11960;SDS011;6040;49.358;11.140;2024-02-16T05:32:01;8.93;;;6.82;;
11960;SDS011;6040;49.358;11.140;2024-02-16T05:34:28;7.70;;;6.38;;
11960;SDS011;6040;49.358;11.140;2024-02-16T05:36:58;7.93;;;6.88;;
11960;SDS011;6040;49.358;11.140;2024-02-16T05:39:26;6.43;;;5.70;;
11960;SDS011;6040;49.358;11.140;2024-02-16T05:41:56;7.05;;;5.63;;
11960;SDS011;6040;49.358;11.140;2024-02-16T05:44:23;7.57;;;6.10;;
11960;SDS011;6040;49.358;11.140;2024-02-16T05:46:50;7.63;;;6.35;;
11960;SDS011;6040;49.358;11.140;2024-02-16T05:49:18;7.57;;;6.07;;
11960;SDS011;6040;49.358;11.140;2024-02-16T05:51:45;6.60;;;5.90;;
11960;SDS011;6040;49.358;11.140;2024-02-16T05:54:32;8.40;;;6.50;;
11960;SDS011;6040;49.358;11.140;2024-02-16T05:56:59;7.20;;;6.38;;
11960;SDS011;6040;49.358;11.140;2024-02-16T05:59:25;8.70;;;6.82;;
11960;SDS011;6040;49.358;11.140;2024-02-16T06:01:52;7.80;;;6.55;;
11960;SDS011;6040;49.358;11.140;2024-02-16T06:04:21;7.72;;;6.65;;
11960;SDS011;6040;49.358;11.140;2024-02-16T06:06:47;8.05;;;7.00;;
11960;SDS011;6040;49.358;11.140;2024-02-16T06:09:14;6.65;;;5.97;;
11960;SDS011;6040;49.358;11.140;2024-02-16T06:11:41;8.30;;;6.80;;
11960;SDS011;6040;49.358;11.140;2024-02-16T06:14:08;6.70;;;5.90;;
11960;SDS011;6040;49.358;11.140;2024-02-16T06:16:35;8.30;;;6.22;;
11960;SDS011;6040;49.358;11.140;2024-02-16T06:19:01;7.13;;;5.57;;
11960;SDS011;6040;49.358;11.140;2024-02-16T06:21:30;6.68;;;5.97;;
11960;SDS011;6040;49.358;11.140;2024-02-16T06:23:56;7.97;;;6.45;;
11960;SDS011;6040;49.358;11.140;2024-02-16T06:26:23;11.67;;;7.53;;
11960;SDS011;6040;49.358;11.140;2024-02-16T06:28:52;7.50;;;6.50;;
11960;SDS011;6040;49.358;11.140;2024-02-16T06:31:36;9.17;;;7.40;;
11960;SDS011;6040;49.358;11.140;2024-02-16T06:34:03;8.90;;;6.70;;
11960;SDS011;6040;49.358;11.140;2024-02-16T06:36:31;14.95;;;11.10;;
11960;SDS011;6040;49.358;11.140;2024-02-16T06:38:58;13.80;;;11.90;;
11960;SDS011;6040;49.358;11.140;2024-02-16T06:41:25;10.15;;;8.35;;
11960;SDS011;6040;49.358;11.140;2024-02-16T06:43:52;9.98;;;7.80;;
11960;SDS011;6040;49.358;11.140;2024-02-16T06:46:19;8.90;;;7.15;;
11960;SDS011;6040;49.358;11.140;2024-02-16T06:48:45;7.68;;;6.60;;
11960;SDS011;6040;49.358;11.140;2024-02-16T06:51:12;8.13;;;6.30;;
11960;SDS011;6040;49.358;11.140;2024-02-16T06:53:40;10.15;;;6.68;;
11960;SDS011;6040;49.358;11.140;2024-02-16T06:56:07;8.48;;;6.60;;
11960;SDS011;6040;49.358;11.140;2024-02-16T06:58:34;8.43;;;6.57;;
11960;SDS011;6040;49.358;11.140;2024-02-16T07:01:01;7.90;;;6.63;;
11960;SDS011;6040;49.358;11.140;2024-02-16T07:03:29;10.20;;;7.35;;
11960;SDS011;6040;49.358;11.140;2024-02-16T07:05:56;8.82;;;7.15;;
11960;SDS011;6040;49.358;11.140;2024-02-16T07:08:23;9.68;;;7.20;;
11960;SDS011;6040;49.358;11.140;2024-02-16T07:10:52;9.70;;;7.18;;
11960;SDS011;6040;49.358;11.140;2024-02-16T07:13:20;9.77;;;6.95;;
11960;SDS011;6040;49.358;11.140;2024-02-16T07:15:48;10.52;;;7.53;;
11960;SDS011;6040;49.358;11.140;2024-02-16T07:18:15;8.60;;;7.38;;
11960;SDS011;6040;49.358;11.140;2024-02-16T07:20:41;21.50;;;16.77;;
11960;SDS011;6040;49.358;11.140;2024-02-16T07:23:08;11.73;;;8.63;;
11960;SDS011;6040;49.358;11.140;2024-02-16T07:25:35;11.93;;;9.63;;
11960;SDS011;6040;49.358;11.140;2024-02-16T07:28:04;13.27;;;10.68;;
11960;SDS011;6040;49.358;11.140;2024-02-16T07:30:31;24.27;;;19.55;;
11960;SDS011;6040;49.358;11.140;2024-02-16T07:32:58;28.63;;;22.08;;
11960;SDS011;6040;49.358;11.140;2024-02-16T07:35:25;23.20;;;19.07;;
11960;SDS011;6040;49.358;11.140;2024-02-16T07:37:52;22.95;;;18.73;;
11960;SDS011;6040;49.358;11.140;2024-02-16T07:40:19;16.77;;;13.52;;
11960;SDS011;6040;49.358;11.140;2024-02-16T07:42:46;13.35;;;11.15;;
11960;SDS011;6040;49.358;11.140;2024-02-16T07:45:14;12.18;;;10.20;;
11960;SDS011;6040;49.358;11.140;2024-02-16T07:47:41;12.32;;;10.00;;
11960;SDS011;6040;49.358;11.140;2024-02-16T07:50:08;11.88;;;9.30;;
11960;SDS011;6040;49.358;11.140;2024-02-16T07:55:34;10.55;;;8.48;;
11960;SDS011;6040;49.358;11.140;2024-02-16T07:58:01;10.50;;;8.40;;
11960;SDS011;6040;49.358;11.140;2024-02-16T08:00:30;9.15;;;8.07;;
11960;SDS011;6040;49.358;11.140;2024-02-16T08:02:56;10.57;;;8.50;;
11960;SDS011;6040;49.358;11.140;2024-02-16T08:05:24;9.95;;;8.23;;
11960;SDS011;6040;49.358;11.140;2024-02-16T08:07:51;10.75;;;8.00;;
11960;SDS011;6040;49.358;11.140;2024-02-16T08:10:19;9.13;;;7.40;;
11960;SDS011;6040;49.358;11.140;2024-02-16T08:12:47;9.57;;;7.55;;
11960;SDS011;6040;49.358;11.140;2024-02-16T08:15:13;10.27;;;7.75;;
11960;SDS011;6040;49.358;11.140;2024-02-16T08:17:42;10.57;;;7.97;;
11960;SDS011;6040;49.358;11.140;2024-02-16T08:20:09;10.90;;;7.80;;
11960;SDS011;6040;49.358;11.140;2024-02-16T08:22:37;9.80;;;8.00;;
11960;SDS011;6040;49.358;11.140;2024-02-16T08:25:04;10.20;;;7.88;;
11960;SDS011;6040;49.358;11.140;2024-02-16T08:27:32;8.98;;;7.65;;
11960;SDS011;6040;49.358;11.140;2024-02-16T08:29:59;8.82;;;7.68;;
11960;SDS011;6040;49.358;11.140;2024-02-16T08:35:50;8.48;;;7.30;;
11960;SDS011;6040;49.358;11.140;2024-02-16T08:38:17;9.43;;;7.47;;
11960;SDS011;6040;49.358;11.140;2024-02-16T08:40:44;9.00;;;7.45;;
11960;SDS011;6040;49.358;11.140;2024-02-16T08:43:13;8.27;;;7.27;;
11960;SDS011;6040;49.358;11.140;2024-02-16T08:45:39;9.83;;;7.77;;
11960;SDS011;6040;49.358;11.140;2024-02-16T08:48:07;8.65;;;7.65;;
11960;SDS011;6040;49.358;11.140;2024-02-16T08:50:34;9.32;;;7.43;;
11960;SDS011;6040;49.358;11.140;2024-02-16T08:53:02;8.00;;;7.20;;
11960;SDS011;6040;49.358;11.140;2024-02-16T08:55:29;8.53;;;7.27;;
11960;SDS011;6040;49.358;11.140;2024-02-16T08:57:56;9.73;;;7.07;;
11960;SDS011;6040;49.358;11.140;2024-02-16T09:00:24;8.43;;;7.20;;
11960;SDS011;6040;49.358;11.140;2024-02-16T09:02:52;7.95;;;6.85;;
11960;SDS011;6040;49.358;11.140;2024-02-16T09:05:18;7.43;;;6.72;;
11960;SDS011;6040;49.358;11.140;2024-02-16T09:07:45;9.15;;;7.10;;
11960;SDS011;6040;49.358;11.140;2024-02-16T09:10:14;7.93;;;6.80;;
11960;SDS011;6040;49.358;11.140;2024-02-16T09:12:41;7.55;;;6.72;;
11960;SDS011;6040;49.358;11.140;2024-02-16T09:15:08;7.47;;;6.75;;
11960;SDS011;6040;49.358;11.140;2024-02-16T09:17:35;8.65;;;7.13;;
11960;SDS011;6040;49.358;11.140;2024-02-16T09:20:02;7.30;;;6.47;;
11960;SDS011;6040;49.358;11.140;2024-02-16T09:22:29;7.80;;;6.75;;
11960;SDS011;6040;49.358;11.140;2024-02-16T09:24:56;7.90;;;6.88;;
11960;SDS011;6040;49.358;11.140;2024-02-16T09:27:26;7.80;;;6.30;;
11960;SDS011;6040;49.358;11.140;2024-02-16T09:29:53;6.87;;;6.17;;
11960;SDS011;6040;49.358;11.140;2024-02-16T09:32:19;6.83;;;6.13;;
11960;SDS011;6040;49.358;11.140;2024-02-16T09:34:47;6.82;;;6.13;;
11960;SDS011;6040;49.358;11.140;2024-02-16T09:37:15;6.70;;;6.10;;
11960;SDS011;6040;49.358;11.140;2024-02-16T09:39:42;7.43;;;6.20;;
11960;SDS011;6040;49.358;11.140;2024-02-16T09:42:09;7.40;;;5.80;;
11960;SDS011;6040;49.358;11.140;2024-02-16T09:44:40;6.32;;;5.72;;
11960;SDS011;6040;49.358;11.140;2024-02-16T09:47:09;7.10;;;6.00;;
11960;SDS011;6040;49.358;11.140;2024-02-16T09:49:37;6.60;;;5.60;;
11960;SDS011;6040;49.358;11.140;2024-02-16T09:52:04;7.90;;;5.82;;
11960;SDS011;6040;49.358;11.140;2024-02-16T09:54:36;7.03;;;5.88;;
11960;SDS011;6040;49.358;11.140;2024-02-16T09:57:03;6.53;;;5.68;;
11960;SDS011;6040;49.358;11.140;2024-02-16T09:59:30;7.55;;;5.60;;
11960;SDS011;6040;49.358;11.140;2024-02-16T10:02:03;6.55;;;5.60;;
11960;SDS011;6040;49.358;11.140;2024-02-16T10:04:32;7.65;;;5.50;;
11960;SDS011;6040;49.358;11.140;2024-02-16T10:06:59;6.60;;;5.88;;
11960;SDS011;6040;49.358;11.140;2024-02-16T10:09:26;9.35;;;5.80;;
11960;SDS011;6040;49.358;11.140;2024-02-16T10:11:54;5.82;;;5.22;;
11960;SDS011;6040;49.358;11.140;2024-02-16T10:14:22;6.13;;;5.53;;
11960;SDS011;6040;49.358;11.140;2024-02-16T10:16:58;6.57;;;5.50;;
11960;SDS011;6040;49.358;11.140;2024-02-16T10:19:27;6.47;;;5.33;;
11960;SDS011;6040;49.358;11.140;2024-02-16T10:21:53;6.85;;;5.40;;
11960;SDS011;6040;49.358;11.140;2024-02-16T10:24:21;6.70;;;5.40;;
11960;SDS011;6040;49.358;11.140;2024-02-16T10:26:48;6.85;;;5.40;;
11960;SDS011;6040;49.358;11.140;2024-02-16T10:29:17;7.28;;;5.43;;
11960;SDS011;6040;49.358;11.140;2024-02-16T10:31:45;7.20;;;5.57;;
11960;SDS011;6040;49.358;11.140;2024-02-16T10:34:12;6.63;;;5.20;;
11960;SDS011;6040;49.358;11.140;2024-02-16T10:36:40;5.75;;;5.10;;
11960;SDS011;6040;49.358;11.140;2024-02-16T10:39:07;6.07;;;5.22;;
11960;SDS011;6040;49.358;11.140;2024-02-16T10:41:37;5.30;;;4.80;;
11960;SDS011;6040;49.358;11.140;2024-02-16T10:44:06;5.45;;;4.93;;
11960;SDS011;6040;49.358;11.140;2024-02-16T10:46:32;6.88;;;5.05;;
11960;SDS011;6040;49.358;11.140;2024-02-16T10:49:00;7.80;;;5.45;;
11960;SDS011;6040;49.358;11.140;2024-02-16T10:51:30;10.55;;;9.13;;
11960;SDS011;6040;49.358;11.140;2024-02-16T10:54:03;6.80;;;5.37;;
11960;SDS011;6040;49.358;11.140;2024-02-16T10:56:35;6.72;;;5.82;;
11960;SDS011;6040;49.358;11.140;2024-02-16T10:59:04;5.35;;;4.85;;
11960;SDS011;6040;49.358;11.140;2024-02-16T11:01:32;5.85;;;5.25;;
11960;SDS011;6040;49.358;11.140;2024-02-16T11:04:03;6.45;;;5.28;;
11960;SDS011;6040;49.358;11.140;2024-02-16T11:06:33;6.95;;;5.53;;
11960;SDS011;6040;49.358;11.140;2024-02-16T11:09:22;7.55;;;5.80;;
11960;SDS011;6040;49.358;11.140;2024-02-16T11:11:51;7.07;;;5.82;;
11960;SDS011;6040;49.358;11.140;2024-02-16T11:14:18;7.32;;;5.80;;
11960;SDS011;6040;49.358;11.140;2024-02-16T11:16:47;7.07;;;5.80;;
11960;SDS011;6040;49.358;11.140;2024-02-16T11:19:14;9.05;;;5.85;;
11960;SDS011;6040;49.358;11.140;2024-02-16T11:21:54;6.85;;;5.70;;
11960;SDS011;6040;49.358;11.140;2024-02-16T11:24:28;7.43;;;5.70;;
11960;SDS011;6040;49.358;11.140;2024-02-16T11:26:56;6.90;;;5.55;;
11960;SDS011;6040;49.358;11.140;2024-02-16T11:29:23;6.90;;;6.10;;
11960;SDS011;6040;49.358;11.140;2024-02-16T11:31:51;7.60;;;6.47;;
11960;SDS011;6040;49.358;11.140;2024-02-16T11:34:22;7.30;;;5.90;;
11960;SDS011;6040;49.358;11.140;2024-02-16T11:36:51;10.65;;;8.55;;
11960;SDS011;6040;49.358;11.140;2024-02-16T11:39:19;7.25;;;5.97;;
11960;SDS011;6040;49.358;11.140;2024-02-16T11:41:48;6.78;;;5.70;;
11960;SDS011;6040;49.358;11.140;2024-02-16T11:44:26;7.88;;;6.30;;
11960;SDS011;6040;49.358;11.140;2024-02-16T11:49:50;7.67;;;6.17;;
11960;SDS011;6040;49.358;11.140;2024-02-16T11:52:26;7.45;;;6.22;;
11960;SDS011;6040;49.358;11.140;2024-02-16T11:54:54;7.53;;;6.00;;
11960;SDS011;6040;49.358;11.140;2024-02-16T11:57:22;7.72;;;6.28;;
11960;SDS011;6040;49.358;11.140;2024-02-16T11:59:49;7.80;;;6.35;;
11960;SDS011;6040;49.358;11.140;2024-02-16T12:02:17;7.72;;;6.30;;
11960;SDS011;6040;49.358;11.140;2024-02-16T12:04:45;9.15;;;6.32;;
11960;SDS011;6040;49.358;11.140;2024-02-16T12:07:13;7.75;;;6.38;;
11960;SDS011;6040;49.358;11.140;2024-02-16T12:09:40;7.28;;;6.50;;
11960;SDS011;6040;49.358;11.140;2024-02-16T12:12:06;7.22;;;5.78;;
11960;SDS011;6040;49.358;11.140;2024-02-16T12:14:35;7.10;;;6.40;;
11960;SDS011;6040;49.358;11.140;2024-02-16T12:17:03;7.18;;;6.38;;
11960;SDS011;6040;49.358;11.140;2024-02-16T12:19:29;7.30;;;6.20;;
11960;SDS011;6040;49.358;11.140;2024-02-16T12:21:56;6.88;;;6.10;;
11960;SDS011;6040;49.358;11.140;2024-02-16T12:24:24;6.90;;;6.20;;
11960;SDS011;6040;49.358;11.140;2024-02-16T12:26:51;6.85;;;5.68;;
11960;SDS011;6040;49.358;11.140;2024-02-16T12:29:18;6.55;;;5.90;;
11960;SDS011;6040;49.358;11.140;2024-02-16T12:31:46;6.78;;;5.93;;
11960;SDS011;6040;49.358;11.140;2024-02-16T12:34:14;7.47;;;6.07;;
11960;SDS011;6040;49.358;11.140;2024-02-16T12:36:41;6.38;;;5.78;;
11960;SDS011;6040;49.358;11.140;2024-02-16T12:39:08;7.60;;;5.90;;
11960;SDS011;6040;49.358;11.140;2024-02-16T12:41:37;7.75;;;6.28;;
11960;SDS011;6040;49.358;11.140;2024-02-16T12:44:06;7.38;;;6.22;;
11960;SDS011;6040;49.358;11.140;2024-02-16T12:46:33;9.98;;;6.15;;
11960;SDS011;6040;49.358;11.140;2024-02-16T12:49:01;6.80;;;6.05;;
11960;SDS011;6040;49.358;11.140;2024-02-16T12:51:28;8.52;;;6.35;;
11960;SDS011;6040;49.358;11.140;2024-02-16T12:53:55;7.63;;;6.30;;
11960;SDS011;6040;49.358;11.140;2024-02-16T12:56:21;7.35;;;6.30;;
11960;SDS011;6040;49.358;11.140;2024-02-16T12:58:48;6.80;;;5.90;;
11960;SDS011;6040;49.358;11.140;2024-02-16T13:01:15;7.32;;;5.75;;
11960;SDS011;6040;49.358;11.140;2024-02-16T13:03:43;7.40;;;6.40;;
11960;SDS011;6040;49.358;11.140;2024-02-16T13:06:11;8.32;;;6.35;;
11960;SDS011;6040;49.358;11.140;2024-02-16T13:08:38;6.68;;;5.50;;
11960;SDS011;6040;49.358;11.140;2024-02-16T13:11:05;7.15;;;5.90;;
11960;SDS011;6040;49.358;11.140;2024-02-16T13:13:32;7.28;;;6.13;;
11960;SDS011;6040;49.358;11.140;2024-02-16T13:15:58;6.43;;;5.75;;
11960;SDS011;6040;49.358;11.140;2024-02-16T13:18:25;8.38;;;5.97;;
11960;SDS011;6040;49.358;11.140;2024-02-16T13:20:52;7.65;;;5.78;;
11960;SDS011;6040;49.358;11.140;2024-02-16T13:23:20;7.25;;;5.80;;
11960;SDS011;6040;49.358;11.140;2024-02-16T13:25:47;7.17;;;6.23;;
11960;SDS011;6040;49.358;11.140;2024-02-16T13:28:14;6.73;;;5.60;;
11960;SDS011;6040;49.358;11.140;2024-02-16T13:30:41;7.90;;;6.20;;
11960;SDS011;6040;49.358;11.140;2024-02-16T13:33:08;7.05;;;6.20;;
11960;SDS011;6040;49.358;11.140;2024-02-16T13:35:35;7.20;;;5.45;;
11960;SDS011;6040;49.358;11.140;2024-02-16T13:38:03;6.82;;;5.70;;
11960;SDS011;6040;49.358;11.140;2024-02-16T13:40:31;7.33;;;5.23;;
11960;SDS011;6040;49.358;11.140;2024-02-16T13:43:01;7.57;;;5.70;;
11960;SDS011;6040;49.358;11.140;2024-02-16T13:45:29;7.23;;;4.93;;
11960;SDS011;6040;49.358;11.140;2024-02-16T13:48:13;5.95;;;4.97;;
11960;SDS011;6040;49.358;11.140;2024-02-16T13:50:40;6.57;;;5.50;;
11960;SDS011;6040;49.358;11.140;2024-02-16T13:53:06;6.97;;;5.68;;
11960;SDS011;6040;49.358;11.140;2024-02-16T13:55:35;5.93;;;5.28;;
11960;SDS011;6040;49.358;11.140;2024-02-16T13:58:01;7.30;;;5.30;;
11960;SDS011;6040;49.358;11.140;2024-02-16T14:00:28;5.95;;;5.35;;
11960;SDS011;6040;49.358;11.140;2024-02-16T14:02:55;5.88;;;5.28;;
11960;SDS011;6040;49.358;11.140;2024-02-16T14:05:22;6.25;;;5.30;;
11960;SDS011;6040;49.358;11.140;2024-02-16T14:07:50;5.88;;;5.28;;
11960;SDS011;6040;49.358;11.140;2024-02-16T14:10:17;6.05;;;5.10;;
11960;SDS011;6040;49.358;11.140;2024-02-16T14:12:47;6.30;;;5.30;;
11960;SDS011;6040;49.358;11.140;2024-02-16T14:15:14;5.97;;;5.30;;
11960;SDS011;6040;49.358;11.140;2024-02-16T14:17:41;7.20;;;5.78;;
11960;SDS011;6040;49.358;11.140;2024-02-16T14:20:08;6.15;;;5.55;;
11960;SDS011;6040;49.358;11.140;2024-02-16T14:22:35;6.60;;;5.35;;
11960;SDS011;6040;49.358;11.140;2024-02-16T14:25:02;8.43;;;6.88;;
11960;SDS011;6040;49.358;11.140;2024-02-16T14:27:29;7.57;;;5.63;;
11960;SDS011;6040;49.358;11.140;2024-02-16T14:29:58;7.55;;;5.50;;
11960;SDS011;6040;49.358;11.140;2024-02-16T14:32:25;7.57;;;5.47;;
11960;SDS011;6040;49.358;11.140;2024-02-16T14:34:52;6.25;;;5.32;;
11960;SDS011;6040;49.358;11.140;2024-02-16T14:37:18;7.30;;;5.75;;
11960;SDS011;6040;49.358;11.140;2024-02-16T14:39:45;9.20;;;7.95;;
11960;SDS011;6040;49.358;11.140;2024-02-16T14:42:12;6.90;;;5.70;;
11960;SDS011;6040;49.358;11.140;2024-02-16T14:44:40;8.10;;;5.65;;
11960;SDS011;6040;49.358;11.140;2024-02-16T14:47:08;6.68;;;5.47;;
11960;SDS011;6040;49.358;11.140;2024-02-16T14:49:35;6.43;;;5.47;;
11960;SDS011;6040;49.358;11.140;2024-02-16T14:52:02;6.88;;;5.40;;
11960;SDS011;6040;49.358;11.140;2024-02-16T14:54:29;6.07;;;5.00;;
11960;SDS011;6040;49.358;11.140;2024-02-16T14:56:56;7.50;;;5.38;;
11960;SDS011;6040;49.358;11.140;2024-02-16T14:59:22;12.93;;;10.55;;
11960;SDS011;6040;49.358;11.140;2024-02-16T15:01:50;9.65;;;6.30;;
11960;SDS011;6040;49.358;11.140;2024-02-16T15:04:19;7.88;;;5.78;;
11960;SDS011;6040;49.358;11.140;2024-02-16T15:06:46;6.73;;;5.33;;